sensor_id;sensor_type;location;lat;lon;timestamp;P1;durP1;ratioP1;P2;durP2;ratioP2
79361;SDS011;68830;47.566;19.012;2023-07-02T00:02:12;8.73;;;6.45;;
79361;SDS011;68830;47.566;19.012;2023-07-02T00:05:14;9.27;;;7.38;;
79361;SDS011;68830;47.566;19.012;2023-07-02T00:08:17;8.95;;;7.68;;
79361;SDS011;68830;47.566;19.012;2023-07-02T00:11:19;8.13;;;6.25;;
79361;SDS011;68830;47.566;19.012;2023-07-02T00:14:22;9.27;;;7.30;;
79361;SDS011;68830;47.566;19.012;2023-07-02T00:17:24;8.82;;;6.43;;
79361;SDS011;68830;47.566;19.012;2023-07-02T00:20:27;7.97;;;7.10;;
79361;SDS011;68830;47.566;19.012;2023-07-02T00:23:29;10.18;;;8.50;;
79361;SDS011;68830;47.566;19.012;2023-07-02T00:26:31;8.38;;;6.43;;
79361;SDS011;68830;47.566;19.012;2023-07-02T00:29:34;9.55;;;6.15;;
79361;SDS011;68830;47.566;19.012;2023-07-02T00:32:36;7.35;;;5.85;;
79361;SDS011;68830;47.566;19.012;2023-07-02T00:35:38;7.97;;;6.18;;
79361;SDS011;68830;47.566;19.012;2023-07-02T00:38:41;8.82;;;7.05;;
79361;SDS011;68830;47.566;19.012;2023-07-02T00:41:43;7.70;;;6.53;;
79361;SDS011;68830;47.566;19.012;2023-07-02T00:44:49;9.02;;;6.20;;
79361;SDS011;68830;47.566;19.012;2023-07-02T00:47:53;7.88;;;7.05;;
79361;SDS011;68830;47.566;19.012;2023-07-02T00:50:56;8.10;;;6.30;;
79361;SDS011;68830;47.566;19.012;2023-07-02T00:53:58;7.20;;;5.97;;
79361;SDS011;68830;47.566;19.012;2023-07-02T00:57:00;7.93;;;7.13;;
79361;SDS011;68830;47.566;19.012;2023-07-02T01:00:10;7.97;;;6.63;;
79361;SDS011;68830;47.566;19.012;2023-07-02T01:03:12;7.47;;;6.68;;
79361;SDS011;68830;47.566;19.012;2023-07-02T01:06:14;7.32;;;4.68;;
79361;SDS011;68830;47.566;19.012;2023-07-02T01:09:18;6.10;;;5.20;;
79361;SDS011;68830;47.566;19.012;2023-07-02T01:12:19;8.38;;;5.15;;
79361;SDS011;68830;47.566;19.012;2023-07-02T01:15:24;5.85;;;5.22;;
79361;SDS011;68830;47.566;19.012;2023-07-02T01:18:27;6.47;;;5.43;;
79361;SDS011;68830;47.566;19.012;2023-07-02T01:21:30;7.50;;;6.20;;
79361;SDS011;68830;47.566;19.012;2023-07-02T01:24:35;6.68;;;5.75;;
79361;SDS011;68830;47.566;19.012;2023-07-02T01:27:37;6.68;;;5.32;;
79361;SDS011;68830;47.566;19.012;2023-07-02T01:30:39;8.15;;;6.60;;
79361;SDS011;68830;47.566;19.012;2023-07-02T01:33:41;7.07;;;5.55;;
79361;SDS011;68830;47.566;19.012;2023-07-02T01:36:45;6.85;;;5.38;;
79361;SDS011;68830;47.566;19.012;2023-07-02T01:39:48;7.35;;;4.95;;
79361;SDS011;68830;47.566;19.012;2023-07-02T01:42:50;8.52;;;6.10;;
79361;SDS011;68830;47.566;19.012;2023-07-02T01:45:52;6.88;;;5.18;;
79361;SDS011;68830;47.566;19.012;2023-07-02T01:48:53;6.88;;;5.63;;
79361;SDS011;68830;47.566;19.012;2023-07-02T01:51:57;6.97;;;5.68;;
79361;SDS011;68830;47.566;19.012;2023-07-02T01:55:00;11.68;;;5.88;;
79361;SDS011;68830;47.566;19.012;2023-07-02T01:58:02;6.15;;;5.20;;
79361;SDS011;68830;47.566;19.012;2023-07-02T02:01:05;7.45;;;5.88;;
79361;SDS011;68830;47.566;19.012;2023-07-02T02:04:06;9.57;;;5.32;;
79361;SDS011;68830;47.566;19.012;2023-07-02T02:07:11;5.78;;;5.15;;
79361;SDS011;68830;47.566;19.012;2023-07-02T02:10:13;6.57;;;5.28;;
79361;SDS011;68830;47.566;19.012;2023-07-02T02:13:17;6.15;;;5.10;;
79361;SDS011;68830;47.566;19.012;2023-07-02T02:16:19;6.68;;;4.90;;
79361;SDS011;68830;47.566;19.012;2023-07-02T02:19:23;5.80;;;4.75;;
79361;SDS011;68830;47.566;19.012;2023-07-02T02:22:26;7.68;;;5.68;;
79361;SDS011;68830;47.566;19.012;2023-07-02T02:25:29;7.60;;;5.60;;
79361;SDS011;68830;47.566;19.012;2023-07-02T02:28:31;8.43;;;5.80;;
79361;SDS011;68830;47.566;19.012;2023-07-02T02:31:32;8.98;;;5.25;;
79361;SDS011;68830;47.566;19.012;2023-07-02T02:34:34;7.10;;;5.20;;
79361;SDS011;68830;47.566;19.012;2023-07-02T02:37:38;6.28;;;5.30;;
79361;SDS011;68830;47.566;19.012;2023-07-02T02:40:41;4.65;;;3.85;;
79361;SDS011;68830;47.566;19.012;2023-07-02T02:43:43;6.85;;;4.47;;
79361;SDS011;68830;47.566;19.012;2023-07-02T02:46:45;6.53;;;5.05;;
79361;SDS011;68830;47.566;19.012;2023-07-02T02:49:47;5.13;;;4.60;;
79361;SDS011;68830;47.566;19.012;2023-07-02T02:52:51;6.40;;;4.07;;
79361;SDS011;68830;47.566;19.012;2023-07-02T02:55:53;6.43;;;4.95;;
79361;SDS011;68830;47.566;19.012;2023-07-02T02:58:55;6.82;;;4.82;;
79361;SDS011;68830;47.566;19.012;2023-07-02T03:01:57;4.95;;;4.40;;
79361;SDS011;68830;47.566;19.012;2023-07-02T03:04:59;5.07;;;4.18;;
79361;SDS011;68830;47.566;19.012;2023-07-02T03:08:06;7.22;;;4.75;;
79361;SDS011;68830;47.566;19.012;2023-07-02T03:11:08;6.20;;;4.38;;
79361;SDS011;68830;47.566;19.012;2023-07-02T03:14:10;5.07;;;4.55;;
79361;SDS011;68830;47.566;19.012;2023-07-02T03:17:12;6.53;;;4.70;;
79361;SDS011;68830;47.566;19.012;2023-07-02T03:20:14;10.45;;;4.85;;
79361;SDS011;68830;47.566;19.012;2023-07-02T03:23:18;5.07;;;4.10;;
79361;SDS011;68830;47.566;19.012;2023-07-02T03:26:19;7.22;;;4.03;;
79361;SDS011;68830;47.566;19.012;2023-07-02T03:29:23;5.93;;;4.63;;
79361;SDS011;68830;47.566;19.012;2023-07-02T03:32:25;5.65;;;3.25;;
79361;SDS011;68830;47.566;19.012;2023-07-02T03:35:27;6.68;;;3.67;;
79361;SDS011;68830;47.566;19.012;2023-07-02T03:38:31;4.97;;;4.25;;
79361;SDS011;68830;47.566;19.012;2023-07-02T03:41:32;6.50;;;4.38;;
79361;SDS011;68830;47.566;19.012;2023-07-02T03:44:34;5.22;;;3.85;;
79361;SDS011;68830;47.566;19.012;2023-07-02T03:47:36;5.88;;;3.88;;
79361;SDS011;68830;47.566;19.012;2023-07-02T03:50:38;4.88;;;4.22;;
79361;SDS011;68830;47.566;19.012;2023-07-02T03:53:42;4.93;;;3.97;;
79361;SDS011;68830;47.566;19.012;2023-07-02T03:56:44;5.90;;;4.05;;
79361;SDS011;68830;47.566;19.012;2023-07-02T03:59:46;5.50;;;3.38;;
79361;SDS011;68830;47.566;19.012;2023-07-02T04:02:47;6.05;;;3.80;;
79361;SDS011;68830;47.566;19.012;2023-07-02T04:05:49;4.75;;;3.65;;
79361;SDS011;68830;47.566;19.012;2023-07-02T04:08:53;7.40;;;3.83;;
79361;SDS011;68830;47.566;19.012;2023-07-02T04:11:55;6.05;;;4.30;;
79361;SDS011;68830;47.566;19.012;2023-07-02T04:14:57;6.32;;;4.05;;
79361;SDS011;68830;47.566;19.012;2023-07-02T04:17:59;5.93;;;4.13;;
79361;SDS011;68830;47.566;19.012;2023-07-02T04:21:02;4.93;;;4.13;;
79361;SDS011;68830;47.566;19.012;2023-07-02T04:24:06;4.47;;;3.80;;
79361;SDS011;68830;47.566;19.012;2023-07-02T04:27:08;7.85;;;3.63;;
79361;SDS011;68830;47.566;19.012;2023-07-02T04:30:30;4.85;;;3.35;;
79361;SDS011;68830;47.566;19.012;2023-07-02T04:33:32;4.70;;;3.92;;
79361;SDS011;68830;47.566;19.012;2023-07-02T04:39:41;4.70;;;3.60;;
79361;SDS011;68830;47.566;19.012;2023-07-02T04:42:43;4.93;;;3.33;;
79361;SDS011;68830;47.566;19.012;2023-07-02T04:45:49;4.88;;;3.75;;
79361;SDS011;68830;47.566;19.012;2023-07-02T04:48:51;3.53;;;3.22;;
79361;SDS011;68830;47.566;19.012;2023-07-02T04:51:53;4.97;;;3.75;;
79361;SDS011;68830;47.566;19.012;2023-07-02T04:54:56;4.70;;;3.65;;
79361;SDS011;68830;47.566;19.012;2023-07-02T04:57:58;3.92;;;3.10;;
79361;SDS011;68830;47.566;19.012;2023-07-02T05:01:00;4.93;;;3.17;;
79361;SDS011;68830;47.566;19.012;2023-07-02T05:04:04;4.65;;;3.58;;
79361;SDS011;68830;47.566;19.012;2023-07-02T05:07:07;4.75;;;3.92;;
79361;SDS011;68830;47.566;19.012;2023-07-02T05:10:10;4.47;;;3.75;;
79361;SDS011;68830;47.566;19.012;2023-07-02T05:13:12;6.45;;;4.18;;
79361;SDS011;68830;47.566;19.012;2023-07-02T05:16:15;5.53;;;3.95;;
79361;SDS011;68830;47.566;19.012;2023-07-02T05:19:18;4.55;;;3.47;;
79361;SDS011;68830;47.566;19.012;2023-07-02T05:22:20;5.20;;;4.03;;
79361;SDS011;68830;47.566;19.012;2023-07-02T05:25:23;5.07;;;4.68;;
79361;SDS011;68830;47.566;19.012;2023-07-02T05:28:26;4.03;;;3.13;;
79361;SDS011;68830;47.566;19.012;2023-07-02T05:31:28;6.13;;;3.47;;
79361;SDS011;68830;47.566;19.012;2023-07-02T05:34:30;3.60;;;2.97;;
79361;SDS011;68830;47.566;19.012;2023-07-02T05:37:32;4.40;;;3.92;;
79361;SDS011;68830;47.566;19.012;2023-07-02T05:40:35;5.03;;;3.78;;
79361;SDS011;68830;47.566;19.012;2023-07-02T05:43:37;4.32;;;2.70;;
79361;SDS011;68830;47.566;19.012;2023-07-02T05:46:39;4.97;;;3.90;;
79361;SDS011;68830;47.566;19.012;2023-07-02T05:49:41;3.67;;;3.15;;
79361;SDS011;68830;47.566;19.012;2023-07-02T05:52:44;6.20;;;4.10;;
79361;SDS011;68830;47.566;19.012;2023-07-02T05:55:47;5.40;;;3.63;;
79361;SDS011;68830;47.566;19.012;2023-07-02T05:58:49;4.35;;;3.22;;
79361;SDS011;68830;47.566;19.012;2023-07-02T06:01:52;5.30;;;4.22;;
79361;SDS011;68830;47.566;19.012;2023-07-02T06:04:54;3.90;;;3.45;;
79361;SDS011;68830;47.566;19.012;2023-07-02T06:07:56;5.93;;;3.75;;
79361;SDS011;68830;47.566;19.012;2023-07-02T06:10:59;4.63;;;3.58;;
79361;SDS011;68830;47.566;19.012;2023-07-02T06:14:01;4.78;;;3.75;;
79361;SDS011;68830;47.566;19.012;2023-07-02T06:17:03;5.25;;;3.47;;
79361;SDS011;68830;47.566;19.012;2023-07-02T06:20:08;4.97;;;2.97;;
79361;SDS011;68830;47.566;19.012;2023-07-02T06:23:11;6.10;;;3.85;;
79361;SDS011;68830;47.566;19.012;2023-07-02T06:26:14;3.35;;;3.00;;
79361;SDS011;68830;47.566;19.012;2023-07-02T06:29:16;5.60;;;3.50;;
79361;SDS011;68830;47.566;19.012;2023-07-02T06:32:19;4.07;;;2.88;;
79361;SDS011;68830;47.566;19.012;2023-07-02T06:35:21;4.13;;;2.80;;
79361;SDS011;68830;47.566;19.012;2023-07-02T06:38:23;3.92;;;2.95;;
79361;SDS011;68830;47.566;19.012;2023-07-02T06:41:26;3.92;;;3.40;;
79361;SDS011;68830;47.566;19.012;2023-07-02T06:44:28;4.75;;;3.67;;
79361;SDS011;68830;47.566;19.012;2023-07-02T06:47:31;3.95;;;3.28;;
79361;SDS011;68830;47.566;19.012;2023-07-02T06:50:33;3.45;;;3.15;;
79361;SDS011;68830;47.566;19.012;2023-07-02T06:53:35;4.65;;;3.13;;
79361;SDS011;68830;47.566;19.012;2023-07-02T06:56:38;6.15;;;3.45;;
79361;SDS011;68830;47.566;19.012;2023-07-02T06:59:40;3.85;;;2.60;;
79361;SDS011;68830;47.566;19.012;2023-07-02T07:02:43;5.90;;;4.38;;
79361;SDS011;68830;47.566;19.012;2023-07-02T07:05:45;3.45;;;2.95;;
79361;SDS011;68830;47.566;19.012;2023-07-02T07:08:47;4.13;;;3.72;;
79361;SDS011;68830;47.566;19.012;2023-07-02T07:11:50;4.00;;;3.60;;
79361;SDS011;68830;47.566;19.012;2023-07-02T07:14:52;4.28;;;3.88;;
79361;SDS011;68830;47.566;19.012;2023-07-02T07:17:54;4.10;;;3.75;;
79361;SDS011;68830;47.566;19.012;2023-07-02T07:20:56;5.32;;;3.28;;
79361;SDS011;68830;47.566;19.012;2023-07-02T07:23:59;6.90;;;3.08;;
79361;SDS011;68830;47.566;19.012;2023-07-02T07:27:02;4.25;;;2.92;;
79361;SDS011;68830;47.566;19.012;2023-07-02T07:30:05;5.50;;;3.58;;
79361;SDS011;68830;47.566;19.012;2023-07-02T07:33:08;4.10;;;3.33;;
79361;SDS011;68830;47.566;19.012;2023-07-02T07:36:11;3.97;;;3.08;;
79361;SDS011;68830;47.566;19.012;2023-07-02T07:39:13;4.38;;;3.60;;
79361;SDS011;68830;47.566;19.012;2023-07-02T07:42:16;5.18;;;3.45;;
79361;SDS011;68830;47.566;19.012;2023-07-02T07:45:18;3.35;;;3.05;;
79361;SDS011;68830;47.566;19.012;2023-07-02T07:48:20;4.15;;;3.75;;
79361;SDS011;68830;47.566;19.012;2023-07-02T07:51:23;4.53;;;3.47;;
79361;SDS011;68830;47.566;19.012;2023-07-02T07:54:25;3.85;;;3.22;;
79361;SDS011;68830;47.566;19.012;2023-07-02T07:57:28;5.47;;;3.53;;
79361;SDS011;68830;47.566;19.012;2023-07-02T08:00:30;6.68;;;3.38;;
79361;SDS011;68830;47.566;19.012;2023-07-02T08:03:32;3.53;;;3.05;;
79361;SDS011;68830;47.566;19.012;2023-07-02T08:06:34;3.40;;;2.90;;
79361;SDS011;68830;47.566;19.012;2023-07-02T08:09:36;3.47;;;2.90;;
79361;SDS011;68830;47.566;19.012;2023-07-02T08:12:39;4.40;;;3.50;;
79361;SDS011;68830;47.566;19.012;2023-07-02T08:15:41;3.03;;;2.65;;
79361;SDS011;68830;47.566;19.012;2023-07-02T08:18:43;3.50;;;2.83;;
79361;SDS011;68830;47.566;19.012;2023-07-02T08:21:45;3.85;;;3.55;;
79361;SDS011;68830;47.566;19.012;2023-07-02T08:24:46;3.88;;;3.50;;
79361;SDS011;68830;47.566;19.012;2023-07-02T08:27:52;3.35;;;3.05;;
79361;SDS011;68830;47.566;19.012;2023-07-02T08:30:55;3.50;;;2.63;;
79361;SDS011;68830;47.566;19.012;2023-07-02T08:33:56;3.95;;;2.85;;
79361;SDS011;68830;47.566;19.012;2023-07-02T08:36:58;3.22;;;2.92;;
79361;SDS011;68830;47.566;19.012;2023-07-02T08:40:01;4.10;;;3.33;;
79361;SDS011;68830;47.566;19.012;2023-07-02T08:43:04;3.00;;;2.67;;
79361;SDS011;68830;47.566;19.012;2023-07-02T08:46:06;3.22;;;2.85;;
79361;SDS011;68830;47.566;19.012;2023-07-02T08:49:09;6.93;;;3.20;;
79361;SDS011;68830;47.566;19.012;2023-07-02T08:52:11;5.68;;;3.55;;
79361;SDS011;68830;47.566;19.012;2023-07-02T08:55:13;4.45;;;4.00;;
79361;SDS011;68830;47.566;19.012;2023-07-02T08:58:17;3.55;;;3.25;;
79361;SDS011;68830;47.566;19.012;2023-07-02T09:01:19;4.80;;;4.22;;
79361;SDS011;68830;47.566;19.012;2023-07-02T09:07:27;5.90;;;4.30;;
79361;SDS011;68830;47.566;19.012;2023-07-02T09:10:30;5.57;;;3.47;;
79361;SDS011;68830;47.566;19.012;2023-07-02T09:13:42;4.10;;;3.70;;
79361;SDS011;68830;47.566;19.012;2023-07-02T09:16:45;7.82;;;3.97;;
79361;SDS011;68830;47.566;19.012;2023-07-02T09:19:49;4.32;;;3.70;;
79361;SDS011;68830;47.566;19.012;2023-07-02T09:22:53;3.58;;;3.20;;
79361;SDS011;68830;47.566;19.012;2023-07-02T09:25:56;4.15;;;3.63;;
79361;SDS011;68830;47.566;19.012;2023-07-02T09:29:02;4.50;;;3.42;;
79361;SDS011;68830;47.566;19.012;2023-07-02T09:32:05;4.30;;;3.90;;
79361;SDS011;68830;47.566;19.012;2023-07-02T09:35:12;3.78;;;3.47;;
79361;SDS011;68830;47.566;19.012;2023-07-02T09:38:14;4.35;;;3.35;;
79361;SDS011;68830;47.566;19.012;2023-07-02T09:41:16;4.22;;;3.80;;
79361;SDS011;68830;47.566;19.012;2023-07-02T09:44:20;5.13;;;4.22;;
79361;SDS011;68830;47.566;19.012;2023-07-02T09:47:22;5.10;;;3.30;;
79361;SDS011;68830;47.566;19.012;2023-07-02T09:50:26;3.60;;;3.22;;
79361;SDS011;68830;47.566;19.012;2023-07-02T09:53:31;3.20;;;2.90;;
79361;SDS011;68830;47.566;19.012;2023-07-02T09:56:32;5.00;;;3.42;;
79361;SDS011;68830;47.566;19.012;2023-07-02T09:59:37;3.38;;;3.08;;
79361;SDS011;68830;47.566;19.012;2023-07-02T10:02:40;4.85;;;3.35;;
79361;SDS011;68830;47.566;19.012;2023-07-02T10:05:42;4.30;;;3.13;;
79361;SDS011;68830;47.566;19.012;2023-07-02T10:08:52;3.80;;;3.40;;
79361;SDS011;68830;47.566;19.012;2023-07-02T10:11:54;5.07;;;3.55;;
79361;SDS011;68830;47.566;19.012;2023-07-02T10:14:58;4.07;;;3.47;;
79361;SDS011;68830;47.566;19.012;2023-07-02T10:18:01;5.10;;;3.83;;
79361;SDS011;68830;47.566;19.012;2023-07-02T10:21:14;4.07;;;3.63;;
79361;SDS011;68830;47.566;19.012;2023-07-02T10:24:17;3.47;;;2.72;;
79361;SDS011;68830;47.566;19.012;2023-07-02T10:27:19;3.10;;;2.80;;
79361;SDS011;68830;47.566;19.012;2023-07-02T10:30:31;4.32;;;3.38;;
79361;SDS011;68830;47.566;19.012;2023-07-02T10:33:34;3.63;;;3.05;;
79361;SDS011;68830;47.566;19.012;2023-07-02T10:36:36;3.35;;;3.05;;
79361;SDS011;68830;47.566;19.012;2023-07-02T10:39:38;3.72;;;3.00;;
79361;SDS011;68830;47.566;19.012;2023-07-02T10:42:45;3.70;;;2.78;;
79361;SDS011;68830;47.566;19.012;2023-07-02T10:45:50;3.13;;;2.83;;
79361;SDS011;68830;47.566;19.012;2023-07-02T10:48:52;3.50;;;2.58;;
79361;SDS011;68830;47.566;19.012;2023-07-02T10:51:58;4.32;;;2.65;;
79361;SDS011;68830;47.566;19.012;2023-07-02T10:55:00;4.63;;;2.70;;
79361;SDS011;68830;47.566;19.012;2023-07-02T10:58:02;6.93;;;3.70;;
79361;SDS011;68830;47.566;19.012;2023-07-02T11:01:08;5.75;;;3.25;;
79361;SDS011;68830;47.566;19.012;2023-07-02T11:04:13;3.50;;;3.03;;
79361;SDS011;68830;47.566;19.012;2023-07-02T11:07:22;3.50;;;2.97;;
79361;SDS011;68830;47.566;19.012;2023-07-02T11:10:24;3.75;;;3.15;;
79361;SDS011;68830;47.566;19.012;2023-07-02T11:13:26;3.95;;;2.60;;
79361;SDS011;68830;47.566;19.012;2023-07-02T11:16:30;3.85;;;2.85;;
79361;SDS011;68830;47.566;19.012;2023-07-02T11:19:32;4.07;;;2.40;;
79361;SDS011;68830;47.566;19.012;2023-07-02T11:22:36;2.83;;;2.35;;
79361;SDS011;68830;47.566;19.012;2023-07-02T11:25:39;3.45;;;2.78;;
79361;SDS011;68830;47.566;19.012;2023-07-02T11:28:48;3.33;;;2.83;;
79361;SDS011;68830;47.566;19.012;2023-07-02T11:31:53;6.43;;;2.67;;
79361;SDS011;68830;47.566;19.012;2023-07-02T11:34:55;3.17;;;2.65;;
79361;SDS011;68830;47.566;19.012;2023-07-02T11:37:58;3.67;;;3.00;;
79361;SDS011;68830;47.566;19.012;2023-07-02T11:41:00;4.47;;;3.00;;
79361;SDS011;68830;47.566;19.012;2023-07-02T11:44:04;4.32;;;3.47;;
79361;SDS011;68830;47.566;19.012;2023-07-02T11:47:08;4.50;;;3.33;;
79361;SDS011;68830;47.566;19.012;2023-07-02T11:50:10;3.25;;;2.70;;
79361;SDS011;68830;47.566;19.012;2023-07-02T11:53:26;3.13;;;2.50;;
79361;SDS011;68830;47.566;19.012;2023-07-02T11:56:28;3.53;;;3.20;;
79361;SDS011;68830;47.566;19.012;2023-07-02T11:59:30;4.15;;;2.80;;
79361;SDS011;68830;47.566;19.012;2023-07-02T12:02:34;3.90;;;2.30;;
79361;SDS011;68830;47.566;19.012;2023-07-02T12:05:36;2.67;;;2.10;;
79361;SDS011;68830;47.566;19.012;2023-07-02T12:08:38;2.22;;;2.03;;
79361;SDS011;68830;47.566;19.012;2023-07-02T12:11:40;3.22;;;2.28;;
79361;SDS011;68830;47.566;19.012;2023-07-02T12:14:43;7.80;;;2.85;;
79361;SDS011;68830;47.566;19.012;2023-07-02T12:17:46;2.88;;;2.35;;
79361;SDS011;68830;47.566;19.012;2023-07-02T12:20:49;2.35;;;2.15;;
79361;SDS011;68830;47.566;19.012;2023-07-02T12:23:51;4.07;;;3.13;;
79361;SDS011;68830;47.566;19.012;2023-07-02T12:26:53;5.03;;;2.60;;
79361;SDS011;68830;47.566;19.012;2023-07-02T12:29:55;3.13;;;2.50;;
79361;SDS011;68830;47.566;19.012;2023-07-02T12:32:59;4.80;;;3.03;;
79361;SDS011;68830;47.566;19.012;2023-07-02T12:36:01;2.72;;;2.47;;
79361;SDS011;68830;47.566;19.012;2023-07-02T12:39:05;2.30;;;2.10;;
79361;SDS011;68830;47.566;19.012;2023-07-02T12:42:07;3.95;;;2.42;;
79361;SDS011;68830;47.566;19.012;2023-07-02T12:45:09;2.08;;;1.88;;
79361;SDS011;68830;47.566;19.012;2023-07-02T12:48:14;3.05;;;1.80;;
79361;SDS011;68830;47.566;19.012;2023-07-02T12:51:16;2.78;;;2.20;;
79361;SDS011;68830;47.566;19.012;2023-07-02T12:54:21;2.90;;;2.13;;
79361;SDS011;68830;47.566;19.012;2023-07-02T12:57:23;1.77;;;1.67;;
79361;SDS011;68830;47.566;19.012;2023-07-02T13:00:26;2.10;;;1.70;;
79361;SDS011;68830;47.566;19.012;2023-07-02T13:03:31;4.80;;;1.58;;
79361;SDS011;68830;47.566;19.012;2023-07-02T13:06:34;1.50;;;1.30;;
79361;SDS011;68830;47.566;19.012;2023-07-02T13:09:42;4.07;;;2.10;;
79361;SDS011;68830;47.566;19.012;2023-07-02T13:12:45;1.35;;;1.25;;
79361;SDS011;68830;47.566;19.012;2023-07-02T13:15:47;1.17;;;1.08;;
79361;SDS011;68830;47.566;19.012;2023-07-02T13:18:51;3.17;;;1.42;;
79361;SDS011;68830;47.566;19.012;2023-07-02T13:21:57;2.08;;;1.10;;
79361;SDS011;68830;47.566;19.012;2023-07-02T13:25:00;1.33;;;1.23;;
79361;SDS011;68830;47.566;19.012;2023-07-02T13:28:02;2.55;;;1.20;;
79361;SDS011;68830;47.566;19.012;2023-07-02T13:31:05;1.25;;;1.05;;
79361;SDS011;68830;47.566;19.012;2023-07-02T13:34:11;1.75;;;1.10;;
79361;SDS011;68830;47.566;19.012;2023-07-02T13:37:14;1.33;;;1.13;;
79361;SDS011;68830;47.566;19.012;2023-07-02T13:40:19;1.50;;;1.40;;
79361;SDS011;68830;47.566;19.012;2023-07-02T13:43:23;2.17;;;1.15;;
79361;SDS011;68830;47.566;19.012;2023-07-02T13:46:26;3.25;;;1.30;;
79361;SDS011;68830;47.566;19.012;2023-07-02T13:49:30;1.75;;;1.40;;
79361;SDS011;68830;47.566;19.012;2023-07-02T13:52:32;2.25;;;1.60;;
79361;SDS011;68830;47.566;19.012;2023-07-02T13:55:34;1.85;;;1.40;;
79361;SDS011;68830;47.566;19.012;2023-07-02T13:58:57;3.22;;;1.40;;
79361;SDS011;68830;47.566;19.012;2023-07-02T14:02:01;1.50;;;1.30;;
79361;SDS011;68830;47.566;19.012;2023-07-02T14:05:03;5.50;;;2.45;;
79361;SDS011;68830;47.566;19.012;2023-07-02T14:08:06;1.63;;;1.40;;
79361;SDS011;68830;47.566;19.012;2023-07-02T14:11:10;1.30;;;1.20;;
79361;SDS011;68830;47.566;19.012;2023-07-02T14:14:16;2.03;;;1.33;;
79361;SDS011;68830;47.566;19.012;2023-07-02T14:17:18;1.90;;;1.70;;
79361;SDS011;68830;47.566;19.012;2023-07-02T14:20:23;2.15;;;1.23;;
79361;SDS011;68830;47.566;19.012;2023-07-02T14:23:25;2.20;;;1.63;;
79361;SDS011;68830;47.566;19.012;2023-07-02T14:26:28;2.38;;;1.65;;
79361;SDS011;68830;47.566;19.012;2023-07-02T14:29:33;2.33;;;1.50;;
79361;SDS011;68830;47.566;19.012;2023-07-02T14:35:40;1.92;;;1.80;;
79361;SDS011;68830;47.566;19.012;2023-07-02T14:38:42;1.48;;;1.38;;
79361;SDS011;68830;47.566;19.012;2023-07-02T14:41:45;1.88;;;1.60;;
79361;SDS011;68830;47.566;19.012;2023-07-02T14:44:49;1.90;;;1.70;;
79361;SDS011;68830;47.566;19.012;2023-07-02T14:50:54;2.45;;;1.75;;
79361;SDS011;68830;47.566;19.012;2023-07-02T14:53:58;1.55;;;1.45;;
79361;SDS011;68830;47.566;19.012;2023-07-02T14:57:00;1.95;;;1.45;;
79361;SDS011;68830;47.566;19.012;2023-07-02T15:00:05;1.83;;;1.67;;
79361;SDS011;68830;47.566;19.012;2023-07-02T15:03:08;2.05;;;1.88;;
79361;SDS011;68830;47.566;19.012;2023-07-02T15:06:11;3.13;;;1.40;;
79361;SDS011;68830;47.566;19.012;2023-07-02T15:09:14;2.75;;;1.60;;
79361;SDS011;68830;47.566;19.012;2023-07-02T15:12:16;3.13;;;1.50;;
79361;SDS011;68830;47.566;19.012;2023-07-02T15:15:20;1.67;;;1.58;;
79361;SDS011;68830;47.566;19.012;2023-07-02T15:18:24;1.83;;;1.30;;
79361;SDS011;68830;47.566;19.012;2023-07-02T15:21:27;2.10;;;1.70;;
79361;SDS011;68830;47.566;19.012;2023-07-02T15:24:31;2.78;;;1.75;;
79361;SDS011;68830;47.566;19.012;2023-07-02T15:27:35;1.88;;;1.48;;
79361;SDS011;68830;47.566;19.012;2023-07-02T15:30:39;1.63;;;1.52;;
79361;SDS011;68830;47.566;19.012;2023-07-02T15:33:41;1.60;;;1.40;;
79361;SDS011;68830;47.566;19.012;2023-07-02T15:36:43;2.90;;;1.48;;
79361;SDS011;68830;47.566;19.012;2023-07-02T15:39:46;3.42;;;1.33;;
79361;SDS011;68830;47.566;19.012;2023-07-02T15:42:48;2.45;;;1.48;;
79361;SDS011;68830;47.566;19.012;2023-07-02T15:48:57;1.50;;;1.40;;
79361;SDS011;68830;47.566;19.012;2023-07-02T15:52:01;1.73;;;1.58;;
79361;SDS011;68830;47.566;19.012;2023-07-02T15:55:03;1.65;;;1.55;;
79361;SDS011;68830;47.566;19.012;2023-07-02T15:58:07;1.73;;;1.38;;
79361;SDS011;68830;47.566;19.012;2023-07-02T16:01:11;1.92;;;1.40;;
79361;SDS011;68830;47.566;19.012;2023-07-02T16:04:15;2.97;;;1.65;;
79361;SDS011;68830;47.566;19.012;2023-07-02T16:07:17;2.95;;;1.90;;
79361;SDS011;68830;47.566;19.012;2023-07-02T16:10:19;1.95;;;1.45;;
79361;SDS011;68830;47.566;19.012;2023-07-02T16:13:22;1.75;;;1.63;;
79361;SDS011;68830;47.566;19.012;2023-07-02T16:16:25;2.38;;;1.83;;
79361;SDS011;68830;47.566;19.012;2023-07-02T16:19:27;2.58;;;1.90;;
79361;SDS011;68830;47.566;19.012;2023-07-02T16:22:29;1.88;;;1.70;;
79361;SDS011;68830;47.566;19.012;2023-07-02T16:25:31;1.92;;;1.83;;
79361;SDS011;68830;47.566;19.012;2023-07-02T16:28:34;2.42;;;2.15;;
79361;SDS011;68830;47.566;19.012;2023-07-02T16:31:40;2.25;;;1.65;;
79361;SDS011;68830;47.566;19.012;2023-07-02T16:34:46;1.90;;;1.70;;
79361;SDS011;68830;47.566;19.012;2023-07-02T16:37:48;1.50;;;1.27;;
79361;SDS011;68830;47.566;19.012;2023-07-02T16:40:51;2.90;;;2.00;;
79361;SDS011;68830;47.566;19.012;2023-07-02T16:43:52;4.93;;;1.80;;
79361;SDS011;68830;47.566;19.012;2023-07-02T16:46:56;2.00;;;1.55;;
79361;SDS011;68830;47.566;19.012;2023-07-02T16:50:00;1.83;;;1.67;;
79361;SDS011;68830;47.566;19.012;2023-07-02T16:53:02;2.25;;;1.75;;
79361;SDS011;68830;47.566;19.012;2023-07-02T16:56:04;2.05;;;1.52;;
79361;SDS011;68830;47.566;19.012;2023-07-02T16:59:08;1.25;;;1.13;;
79361;SDS011;68830;47.566;19.012;2023-07-02T17:02:12;1.65;;;1.45;;
79361;SDS011;68830;47.566;19.012;2023-07-02T17:05:16;3.85;;;2.00;;
79361;SDS011;68830;47.566;19.012;2023-07-02T17:08:18;3.22;;;1.95;;
79361;SDS011;68830;47.566;19.012;2023-07-02T17:11:20;1.63;;;1.25;;
79361;SDS011;68830;47.566;19.012;2023-07-02T17:14:23;3.40;;;1.77;;
79361;SDS011;68830;47.566;19.012;2023-07-02T17:17:28;1.60;;;1.40;;
79361;SDS011;68830;47.566;19.012;2023-07-02T17:20:31;2.63;;;2.28;;
79361;SDS011;68830;47.566;19.012;2023-07-02T17:23:33;2.25;;;1.63;;
79361;SDS011;68830;47.566;19.012;2023-07-02T17:26:35;3.33;;;1.75;;
79361;SDS011;68830;47.566;19.012;2023-07-02T17:29:38;3.25;;;1.75;;
79361;SDS011;68830;47.566;19.012;2023-07-02T17:32:42;3.38;;;2.00;;
79361;SDS011;68830;47.566;19.012;2023-07-02T17:35:44;2.40;;;1.60;;
79361;SDS011;68830;47.566;19.012;2023-07-02T17:38:47;2.40;;;1.80;;
79361;SDS011;68830;47.566;19.012;2023-07-02T17:41:50;1.88;;;1.60;;
79361;SDS011;68830;47.566;19.012;2023-07-02T17:44:54;2.17;;;1.85;;
79361;SDS011;68830;47.566;19.012;2023-07-02T17:48:02;3.03;;;1.83;;
79361;SDS011;68830;47.566;19.012;2023-07-02T17:54:07;2.60;;;1.92;;
79361;SDS011;68830;47.566;19.012;2023-07-02T17:57:10;2.15;;;1.27;;
79361;SDS011;68830;47.566;19.012;2023-07-02T18:00:14;2.00;;;1.65;;
79361;SDS011;68830;47.566;19.012;2023-07-02T18:03:19;2.80;;;1.70;;
79361;SDS011;68830;47.566;19.012;2023-07-02T18:06:24;1.60;;;1.50;;
79361;SDS011;68830;47.566;19.012;2023-07-02T18:09:26;1.67;;;1.42;;
79361;SDS011;68830;47.566;19.012;2023-07-02T18:12:29;1.83;;;1.65;;
79361;SDS011;68830;47.566;19.012;2023-07-02T18:15:31;2.80;;;1.55;;
79361;SDS011;68830;47.566;19.012;2023-07-02T18:18:36;1.85;;;1.42;;
79361;SDS011;68830;47.566;19.012;2023-07-02T18:21:38;2.17;;;1.35;;
79361;SDS011;68830;47.566;19.012;2023-07-02T18:24:41;2.63;;;1.80;;